createdAt,value
2018-05-13T00:01:14.450Z,11.20
2018-05-13T00:03:40.432Z,9.85
2018-05-13T00:06:06.427Z,10.63
2018-05-13T00:08:32.520Z,10.75
2018-05-13T00:10:58.440Z,10.85
2018-05-13T00:13:24.373Z,127.93
2018-05-13T00:15:50.376Z,128.27
2018-05-13T00:18:16.366Z,31.73
2018-05-13T00:20:42.311Z,11.77
2018-05-13T00:23:08.283Z,11.48
2018-05-13T00:25:34.309Z,11.88
2018-05-13T00:28:00.294Z,11.30
2018-05-13T00:30:26.556Z,11.27
2018-05-13T00:32:52.505Z,11.90
2018-05-13T00:35:18.474Z,12.40
2018-05-13T00:37:44.482Z,11.98
2018-05-13T00:40:10.471Z,11.30
2018-05-13T00:42:36.471Z,11.73
2018-05-13T00:45:02.461Z,10.50
2018-05-13T00:47:28.455Z,10.07
2018-05-13T00:49:54.452Z,9.35
2018-05-13T00:52:20.429Z,8.90
2018-05-13T00:54:53.656Z,9.23
2018-05-13T00:57:19.841Z,8.35
2018-05-13T00:59:45.998Z,9.82
2018-05-13T01:02:12.085Z,8.98
2018-05-13T01:04:38.467Z,8.50
2018-05-13T01:07:04.404Z,8.90
2018-05-13T01:09:30.448Z,9.23
2018-05-13T01:11:56.437Z,8.65
2018-05-13T01:14:22.454Z,9.38
2018-05-13T01:16:48.455Z,9.20
2018-05-13T01:19:14.392Z,9.38
2018-05-13T01:21:40.436Z,11.47
2018-05-13T01:24:06.586Z,12.80
2018-05-13T01:26:32.563Z,11.60
2018-05-13T01:28:58.502Z,11.48
2018-05-13T01:31:24.497Z,10.10
2018-05-13T01:33:50.578Z,10.32
2018-05-13T01:36:16.587Z,9.82
2018-05-13T01:38:42.559Z,10.13
2018-05-13T01:41:08.524Z,9.18
2018-05-13T01:43:34.489Z,8.48
2018-05-13T01:46:00.493Z,9.02
2018-05-13T01:48:26.509Z,8.85
2018-05-13T01:50:52.413Z,6.68
2018-05-13T01:53:18.363Z,7.20
2018-05-13T01:55:44.393Z,7.10
2018-05-13T01:58:10.406Z,6.60
2018-05-13T02:00:36.389Z,6.15
2018-05-13T02:03:02.376Z,7.70
2018-05-13T02:05:28.366Z,7.90
2018-05-13T02:07:54.301Z,7.85
2018-05-13T02:10:20.338Z,7.57
2018-05-13T02:12:46.313Z,7.20
2018-05-13T02:15:12.348Z,7.55
2018-05-13T02:17:38.330Z,6.97
2018-05-13T02:20:04.299Z,7.65
2018-05-13T02:22:30.326Z,6.90
2018-05-13T02:24:56.293Z,6.65
2018-05-13T02:27:22.286Z,6.60
2018-05-13T02:29:48.229Z,6.37
2018-05-13T02:32:14.256Z,7.15
2018-05-13T02:34:40.275Z,6.78
2018-05-13T02:37:06.406Z,7.00
2018-05-13T02:39:32.428Z,6.28
2018-05-13T02:41:58.394Z,6.85
2018-05-13T02:44:24.338Z,6.07
2018-05-13T02:46:50.444Z,6.35
2018-05-13T02:49:16.547Z,6.87
2018-05-13T02:51:42.506Z,6.20
2018-05-13T02:54:08.465Z,5.90
2018-05-13T02:56:34.437Z,5.70
2018-05-13T02:59:00.415Z,5.62
2018-05-13T03:01:26.396Z,6.40
2018-05-13T03:03:52.308Z,6.28
2018-05-13T03:06:18.290Z,5.87
2018-05-13T03:08:44.340Z,6.55
2018-05-13T03:11:10.393Z,5.85
2018-05-13T03:13:36.419Z,6.10
2018-05-13T03:16:02.438Z,6.05
2018-05-13T03:18:28.357Z,5.65
2018-05-13T03:20:54.350Z,5.60
2018-05-13T03:23:20.363Z,6.20
2018-05-13T03:25:46.332Z,5.50
2018-05-13T03:28:12.378Z,5.60
2018-05-13T03:30:38.330Z,5.00
2018-05-13T03:33:04.266Z,6.00
2018-05-13T03:35:30.296Z,5.70
2018-05-13T03:37:56.238Z,5.50
2018-05-13T03:40:22.377Z,5.30
2018-05-13T03:42:48.347Z,5.70
2018-05-13T03:45:14.307Z,5.22
2018-05-13T03:47:40.289Z,4.90
2018-05-13T03:50:06.363Z,5.50
2018-05-13T03:52:32.433Z,5.32
2018-05-13T03:54:58.389Z,5.07
2018-05-13T03:57:24.486Z,5.60
2018-05-13T04:02:33.570Z,5.18
2018-05-13T04:04:59.547Z,4.87
2018-05-13T04:07:25.494Z,5.45
2018-05-13T04:10:03.857Z,4.78
2018-05-13T04:12:42.064Z,5.32
2018-05-13T04:15:25.949Z,5.32
2018-05-13T04:17:51.937Z,5.57
2018-05-13T04:20:17.932Z,5.10
2018-05-13T04:22:43.943Z,5.37
2018-05-13T04:25:09.973Z,5.45
2018-05-13T04:27:35.946Z,5.40
2018-05-13T04:30:01.945Z,5.40
2018-05-13T04:32:27.908Z,5.00
2018-05-13T04:34:53.887Z,4.90
2018-05-13T04:37:19.845Z,4.82
2018-05-13T04:39:45.873Z,5.43
2018-05-13T04:42:11.862Z,5.25
2018-05-13T04:44:37.884Z,5.00
2018-05-13T04:47:03.861Z,5.40
2018-05-13T04:49:29.845Z,5.10
2018-05-13T04:51:55.790Z,5.40
2018-05-13T04:54:21.797Z,5.28
2018-05-13T04:56:47.838Z,5.37
2018-05-13T04:59:13.801Z,4.97
2018-05-13T05:01:39.782Z,4.75
2018-05-13T05:04:05.938Z,5.37
2018-05-13T05:06:32.006Z,5.10
2018-05-13T05:08:58.167Z,5.45
2018-05-13T05:11:24.100Z,5.20
2018-05-13T05:13:50.067Z,6.00
2018-05-13T05:16:16.024Z,5.47
2018-05-13T05:18:41.988Z,5.20
2018-05-13T05:21:08.001Z,5.78
2018-05-13T05:23:33.928Z,5.57
2018-05-13T05:25:59.912Z,6.30
2018-05-13T05:28:25.932Z,6.00
2018-05-13T05:30:52.061Z,6.10
2018-05-13T05:33:17.988Z,6.32
2018-05-13T05:35:43.977Z,6.50
2018-05-13T05:38:09.904Z,6.07
2018-05-13T05:40:36.025Z,6.10
2018-05-13T05:43:01.971Z,6.35
2018-05-13T05:45:28.003Z,5.50
2018-05-13T05:47:53.968Z,6.13
2018-05-13T05:50:20.005Z,6.25
2018-05-13T05:52:46.026Z,6.40
2018-05-13T05:55:11.997Z,5.87
2018-05-13T05:57:37.970Z,6.40
2018-05-13T06:00:04.011Z,6.30
2018-05-13T06:02:30.030Z,6.50
2018-05-13T06:04:56.008Z,6.65
2018-05-13T06:07:22.098Z,6.90
2018-05-13T06:09:48.100Z,6.45
2018-05-13T06:12:14.136Z,6.90
2018-05-13T06:14:40.575Z,6.45
2018-05-13T06:17:06.581Z,6.50
2018-05-13T06:19:32.565Z,7.30
2018-05-13T06:21:58.541Z,6.50
2018-05-13T06:24:24.510Z,6.60
2018-05-13T06:26:50.764Z,7.03
2018-05-13T06:29:16.730Z,6.70
2018-05-13T06:31:42.803Z,7.18
2018-05-13T06:34:08.777Z,6.85
2018-05-13T06:36:35.678Z,7.82
2018-05-13T06:39:01.639Z,6.60
2018-05-13T06:41:27.693Z,7.47
2018-05-13T06:43:53.643Z,7.00
2018-05-13T06:46:19.606Z,6.57
2018-05-13T06:48:45.545Z,6.68
2018-05-13T06:51:11.527Z,8.05
2018-05-13T06:53:37.584Z,7.62
2018-05-13T06:56:03.583Z,7.80
2018-05-13T06:58:29.566Z,7.00
2018-05-13T07:00:55.562Z,6.82
2018-05-13T07:03:21.476Z,7.70
2018-05-13T07:05:47.466Z,7.30
2018-05-13T07:08:13.482Z,7.60
2018-05-13T07:10:39.425Z,7.45
2018-05-13T07:13:05.414Z,8.40
2018-05-13T07:15:31.463Z,7.90
2018-05-13T07:17:57.475Z,7.47
2018-05-13T07:20:23.444Z,7.57
2018-05-13T07:22:49.487Z,8.20
2018-05-13T07:25:15.838Z,8.02
2018-05-13T07:27:41.837Z,8.18
2018-05-13T07:30:07.816Z,7.80
2018-05-13T07:32:33.883Z,8.20
2018-05-13T07:34:59.880Z,7.62
2018-05-13T07:37:25.850Z,8.13
2018-05-13T07:39:51.818Z,7.45
2018-05-13T07:42:17.838Z,7.37
2018-05-13T07:44:43.792Z,6.03
2018-05-13T07:47:09.811Z,6.00
2018-05-13T07:49:35.821Z,5.80
2018-05-13T07:52:01.827Z,5.72
2018-05-13T07:54:27.805Z,5.18
2018-05-13T07:56:53.775Z,5.68
2018-05-13T07:59:19.742Z,5.90
2018-05-13T08:01:45.743Z,5.40
2018-05-13T08:04:11.735Z,4.97
2018-05-13T08:06:38.012Z,5.75
2018-05-13T08:09:04.851Z,5.35
2018-05-13T08:11:30.803Z,5.40
2018-05-13T08:13:56.895Z,6.40
2018-05-13T08:16:22.870Z,7.40
2018-05-13T08:18:48.850Z,7.75
2018-05-13T08:21:15.659Z,8.70
2018-05-13T08:23:41.715Z,8.98
2018-05-13T08:26:07.770Z,8.60
2018-05-13T08:28:33.784Z,9.10
2018-05-13T08:30:59.792Z,9.95
2018-05-13T08:33:25.833Z,9.23
2018-05-13T08:35:51.889Z,9.50
2018-05-13T08:38:17.877Z,8.77
2018-05-13T08:40:43.842Z,9.30
2018-05-13T08:43:09.857Z,8.90
2018-05-13T08:45:35.782Z,7.85
2018-05-13T08:48:01.843Z,8.47
2018-05-13T08:50:27.876Z,8.57
2018-05-13T08:52:53.866Z,8.82
2018-05-13T08:55:19.807Z,9.10
2018-05-13T08:57:45.812Z,8.73
2018-05-13T09:00:11.738Z,9.07
2018-05-13T09:02:37.721Z,9.02
2018-05-13T09:05:03.739Z,9.88
2018-05-13T09:07:29.763Z,9.30
2018-05-13T09:09:55.779Z,10.20
2018-05-13T09:12:21.780Z,10.25
2018-05-13T09:14:49.857Z,11.30
2018-05-13T09:17:15.845Z,11.80
2018-05-13T09:19:41.840Z,11.30
2018-05-13T09:22:07.798Z,11.52
2018-05-13T09:24:33.932Z,10.60
2018-05-13T09:27:00.033Z,11.18
2018-05-13T09:29:26.008Z,10.60
2018-05-13T09:31:51.977Z,9.87
2018-05-13T09:34:17.970Z,10.23
2018-05-13T09:36:43.922Z,10.48
2018-05-13T09:39:09.884Z,11.38
2018-05-13T09:41:35.895Z,11.77
2018-05-13T09:44:01.865Z,11.48
2018-05-13T09:46:27.921Z,11.50
2018-05-13T09:48:54.284Z,11.98
2018-05-13T09:51:20.247Z,12.37
2018-05-13T09:53:46.222Z,11.55
2018-05-13T09:56:12.231Z,12.13
2018-05-13T09:58:38.214Z,12.02
2018-05-13T10:01:04.204Z,12.57
2018-05-13T10:03:30.283Z,11.82
2018-05-13T10:05:56.333Z,12.10
2018-05-13T10:08:22.291Z,11.82
2018-05-13T10:10:48.212Z,12.32
2018-05-13T10:13:14.208Z,11.68
2018-05-13T10:15:40.159Z,11.90
2018-05-13T10:18:08.213Z,11.63
2018-05-13T10:20:34.206Z,13.27
2018-05-13T10:23:00.229Z,12.50
2018-05-13T10:25:26.251Z,12.80
2018-05-13T10:27:52.268Z,13.48
2018-05-13T10:30:18.222Z,13.82
2018-05-13T10:32:57.342Z,13.10
2018-05-13T10:35:23.608Z,14.07
2018-05-13T10:37:49.576Z,14.20
2018-05-13T10:40:15.575Z,13.85
2018-05-13T10:42:41.549Z,14.60
2018-05-13T10:45:07.489Z,14.70
2018-05-13T10:47:33.466Z,14.10
2018-05-13T10:49:59.489Z,14.25
2018-05-13T10:52:25.538Z,15.00
2018-05-13T10:54:51.576Z,13.62
2018-05-13T10:57:17.561Z,12.40
2018-05-13T10:59:43.549Z,12.18
2018-05-13T11:02:09.565Z,14.10
2018-05-13T11:04:35.516Z,14.00
2018-05-13T11:07:01.536Z,13.75
2018-05-13T11:09:27.544Z,13.35
2018-05-13T11:11:53.505Z,12.70
2018-05-13T11:14:19.493Z,12.30
2018-05-13T11:16:45.683Z,13.48
2018-05-13T11:19:11.724Z,12.55
2018-05-13T11:21:37.687Z,12.93
2018-05-13T11:24:03.622Z,12.65
2018-05-13T11:26:29.585Z,12.90
2018-05-13T11:28:56.279Z,12.20
2018-05-13T11:31:22.349Z,38.53
2018-05-13T11:33:48.421Z,14.10
2018-05-13T11:36:14.553Z,13.00
2018-05-13T11:38:40.461Z,13.55
2018-05-13T11:41:06.797Z,13.50
2018-05-13T11:43:32.873Z,13.10
2018-05-13T11:46:00.207Z,12.90
2018-05-13T11:48:26.257Z,12.50
2018-05-13T11:50:52.197Z,12.70
2018-05-13T11:53:18.122Z,12.37
2018-05-13T11:55:44.147Z,12.55
2018-05-13T11:58:10.169Z,13.52
2018-05-13T12:00:36.195Z,12.10
2018-05-13T12:03:02.297Z,12.75
2018-05-13T12:05:28.252Z,13.18
2018-05-13T12:07:54.206Z,12.40
2018-05-13T12:10:20.297Z,12.45
2018-05-13T12:12:46.249Z,12.48
2018-05-13T12:15:12.300Z,12.77
2018-05-13T12:17:38.313Z,13.30
2018-05-13T12:20:05.435Z,14.00
2018-05-13T12:22:31.494Z,12.63
2018-05-13T12:24:57.539Z,13.10
2018-05-13T12:27:23.525Z,11.60
2018-05-13T12:29:49.644Z,11.65
2018-05-13T12:32:15.592Z,12.60
2018-05-13T12:34:41.565Z,11.40
2018-05-13T12:37:07.552Z,11.98
2018-05-13T12:39:33.497Z,12.25
2018-05-13T12:41:59.472Z,11.90
2018-05-13T12:44:25.472Z,11.38
2018-05-13T12:46:51.856Z,11.30
2018-05-13T12:49:17.875Z,12.45
2018-05-13T12:51:43.810Z,12.53
2018-05-13T12:54:09.777Z,12.10
2018-05-13T12:56:35.809Z,12.05
2018-05-13T12:59:01.845Z,13.00
2018-05-13T13:01:27.846Z,11.95
2018-05-13T13:03:54.006Z,12.20
2018-05-13T13:06:20.253Z,12.77
2018-05-13T13:08:46.557Z,12.27
2018-05-13T13:11:12.553Z,12.52
2018-05-13T13:13:38.566Z,12.30
2018-05-13T13:16:04.593Z,11.95
2018-05-13T13:18:30.606Z,12.00
2018-05-13T13:20:56.651Z,11.80
2018-05-13T13:23:22.604Z,11.10
2018-05-13T13:25:48.578Z,11.38
2018-05-13T13:28:14.551Z,12.02
2018-05-13T13:30:40.613Z,11.43
2018-05-13T13:33:06.586Z,12.00
2018-05-13T13:35:32.574Z,12.32
2018-05-13T13:37:58.580Z,12.52
2018-05-13T13:40:24.647Z,11.98
2018-05-13T13:42:50.671Z,12.10
2018-05-13T13:45:16.617Z,12.40
2018-05-13T13:47:42.568Z,12.63
2018-05-13T13:50:08.563Z,12.23
2018-05-13T13:52:34.564Z,12.70
2018-05-13T13:55:00.518Z,13.90
2018-05-13T13:57:26.492Z,12.80
2018-05-13T14:08:30.497Z,12.20
2018-05-13T14:10:56.421Z,10.70
2018-05-13T14:13:22.310Z,11.63
2018-05-13T14:18:41.582Z,11.00
2018-05-13T14:21:07.479Z,10.93
2018-05-13T14:23:33.399Z,10.30
2018-05-13T14:25:59.295Z,11.43
2018-05-13T14:28:25.201Z,11.68
2018-05-13T14:30:54.970Z,9.97
2018-05-13T14:33:20.913Z,11.00
2018-05-13T14:35:46.828Z,10.77
2018-05-13T14:38:12.723Z,10.70
2018-05-13T14:40:38.648Z,10.15
2018-05-13T14:43:05.561Z,10.50
2018-05-13T14:45:31.512Z,11.10
2018-05-13T14:48:00.547Z,10.25
2018-05-13T14:50:26.433Z,10.00
2018-05-13T14:52:55.392Z,10.10
2018-05-13T14:55:21.334Z,9.60
2018-05-13T14:57:50.724Z,10.57
2018-05-13T15:00:16.588Z,10.13
2018-05-13T15:02:44.089Z,11.00
2018-05-13T15:05:10.139Z,9.60
2018-05-13T15:07:39.505Z,10.30
2018-05-13T15:10:05.431Z,9.65
2018-05-13T15:12:31.288Z,9.60
2018-05-13T15:14:57.190Z,10.32
2018-05-13T15:17:23.090Z,9.40
2018-05-13T15:19:50.908Z,9.30
2018-05-13T15:22:16.954Z,9.70
2018-05-13T15:24:46.927Z,9.63
2018-05-13T15:27:12.847Z,9.40
2018-05-13T15:29:40.028Z,9.30
2018-05-13T15:45:18.281Z,8.50
2018-05-13T15:47:44.159Z,8.73
2018-05-13T15:50:10.067Z,8.67
2018-05-13T15:52:35.993Z,8.35
2018-05-13T15:55:02.142Z,8.50
2018-05-13T15:57:27.955Z,8.07
2018-05-13T15:59:53.903Z,8.00
2018-05-13T16:02:19.798Z,8.80
2018-05-13T16:04:45.725Z,8.65
2018-05-13T16:07:11.648Z,8.95
2018-05-13T16:09:37.635Z,8.10
2018-05-13T16:12:03.675Z,9.00
2018-05-13T16:14:29.503Z,8.18
2018-05-13T16:16:55.403Z,8.10
2018-05-13T16:19:21.298Z,9.13
2018-05-13T16:21:47.225Z,9.30
2018-05-13T16:24:13.095Z,8.98
2018-05-13T16:26:39.009Z,8.95
2018-05-13T16:29:04.952Z,9.10
2018-05-13T16:31:30.888Z,9.00
2018-05-13T16:33:56.831Z,9.18
2018-05-13T16:36:22.949Z,8.52
2018-05-13T16:38:48.848Z,9.27
2018-05-13T16:41:14.767Z,9.23
2018-05-13T16:43:40.663Z,9.65
2018-05-13T16:46:06.598Z,11.70
2018-05-13T16:48:32.507Z,35.25
2018-05-13T16:50:58.438Z,11.30
2018-05-13T16:53:24.372Z,10.33
2018-05-13T16:55:50.281Z,10.27
2018-05-13T16:58:16.223Z,11.12
2018-05-13T17:00:42.114Z,11.20
2018-05-13T17:03:07.998Z,11.63
2018-05-13T17:05:33.891Z,10.82
2018-05-13T17:07:59.798Z,11.15
2018-05-13T17:10:25.711Z,10.98
2018-05-13T17:12:51.624Z,11.48
2018-05-13T17:15:17.605Z,11.10
2018-05-13T17:17:43.531Z,10.95
2018-05-13T17:20:09.467Z,10.88
2018-05-13T17:22:35.357Z,11.07
2018-05-13T17:25:01.287Z,11.40
2018-05-13T17:27:27.214Z,10.77
2018-05-13T17:29:53.225Z,10.45
2018-05-13T17:32:19.120Z,10.70
2018-05-13T17:34:45.025Z,11.65
2018-05-13T17:37:10.905Z,11.52
2018-05-13T17:39:36.832Z,11.23
2018-05-13T17:42:02.729Z,10.98
2018-05-13T17:44:28.690Z,11.23
2018-05-13T17:46:54.590Z,10.63
2018-05-13T17:49:20.504Z,10.47
2018-05-13T17:51:46.439Z,10.38
2018-05-13T17:54:12.359Z,10.50
2018-05-13T17:56:41.447Z,10.45
2018-05-13T17:59:07.364Z,9.88
2018-05-13T18:01:36.526Z,10.18
2018-05-13T18:04:02.456Z,10.00
2018-05-13T18:06:31.404Z,9.90
2018-05-13T18:08:57.351Z,10.27
2018-05-13T18:11:25.288Z,10.40
2018-05-13T18:13:51.206Z,9.52
2018-05-13T18:16:17.124Z,11.00
2018-05-13T18:18:43.016Z,9.75
2018-05-13T18:21:08.952Z,10.10
2018-05-13T18:23:36.778Z,9.73
2018-05-13T18:26:02.700Z,9.73
2018-05-13T18:28:31.609Z,9.85
2018-05-13T18:30:57.506Z,9.67
2018-05-13T18:33:26.449Z,9.50
2018-05-13T18:35:52.367Z,9.52
2018-05-13T18:38:22.028Z,9.40
2018-05-13T18:40:47.931Z,9.98
2018-05-13T18:43:17.551Z,10.25
2018-05-13T18:45:43.432Z,10.05
2018-05-13T18:48:10.548Z,10.23
2018-05-13T18:50:36.486Z,9.82
2018-05-13T18:53:02.368Z,10.10
2018-05-13T18:55:28.298Z,9.65
2018-05-13T18:57:54.208Z,10.80
2018-05-13T19:00:23.278Z,9.17
2018-05-13T19:02:49.214Z,10.85
2018-05-13T19:05:18.729Z,9.98
2018-05-13T19:07:44.680Z,10.77
2018-05-13T19:10:12.048Z,10.40
2018-05-13T19:12:37.976Z,10.30
2018-05-13T19:15:06.840Z,10.63
2018-05-13T19:17:32.777Z,11.52
2018-05-13T19:20:02.103Z,10.57
2018-05-13T19:22:28.019Z,11.73
2018-05-13T19:24:57.348Z,11.35
2018-05-13T19:27:23.302Z,12.20
2018-05-13T19:29:49.233Z,12.00
2018-05-13T19:32:15.205Z,12.43
2018-05-13T19:34:41.127Z,11.73
2018-05-13T19:37:08.134Z,12.85
2018-05-13T19:39:34.100Z,12.00
2018-05-13T19:42:03.483Z,11.70
2018-05-13T19:44:29.440Z,12.50
2018-05-13T19:46:58.645Z,12.18
2018-05-13T19:49:24.542Z,12.37
2018-05-13T19:51:52.012Z,12.52
2018-05-13T19:54:18.047Z,13.10
2018-05-13T19:56:47.456Z,12.15
2018-05-13T19:59:13.443Z,12.50
2018-05-13T20:01:41.169Z,11.80
2018-05-13T20:04:07.078Z,12.10
2018-05-13T20:06:33.064Z,11.12
2018-05-13T20:08:59.045Z,11.90
2018-05-13T20:11:24.964Z,11.10
2018-05-13T20:13:54.050Z,11.88
2018-05-13T20:16:19.973Z,11.80
2018-05-13T20:18:49.562Z,11.35
2018-05-13T20:21:15.473Z,11.32
2018-05-13T20:23:42.412Z,10.90
2018-05-13T20:26:08.437Z,9.90
2018-05-13T20:28:37.848Z,11.18
2018-05-13T20:31:03.789Z,9.02
2018-05-13T20:33:33.607Z,10.35
2018-05-13T20:35:59.619Z,9.20
2018-05-13T20:38:27.009Z,9.23
2018-05-13T20:40:52.904Z,9.50
2018-05-13T20:43:18.848Z,9.63
2018-05-13T20:45:44.795Z,9.15
2018-05-13T20:48:10.752Z,8.98
2018-05-13T20:50:39.786Z,9.90
2018-05-13T20:53:05.752Z,10.07
2018-05-13T20:55:32.835Z,9.82
2018-05-13T20:57:58.805Z,10.05
2018-05-13T21:00:29.409Z,9.75
2018-05-13T21:02:55.355Z,10.10
2018-05-13T21:05:22.380Z,9.82
2018-05-13T21:07:48.284Z,10.57
2018-05-13T21:10:17.270Z,10.77
2018-05-13T21:12:43.165Z,11.35
2018-05-13T21:15:12.478Z,9.90
2018-05-13T21:17:38.454Z,10.65
2018-05-13T21:20:04.390Z,10.55
2018-05-13T21:22:30.311Z,9.27
2018-05-13T21:38:14.742Z,8.43
2018-05-13T21:40:40.684Z,8.43
2018-05-13T21:43:06.627Z,7.80
2018-05-13T21:45:32.567Z,8.13
2018-05-13T21:47:58.505Z,8.45
2018-05-13T21:50:24.464Z,8.82
2018-05-13T21:52:50.393Z,8.90
2018-05-13T21:55:16.267Z,9.27
2018-05-13T21:57:42.243Z,8.95
2018-05-13T22:00:08.203Z,9.60
2018-05-13T22:02:34.124Z,10.45
2018-05-13T22:05:00.136Z,10.82
2018-05-13T22:07:26.052Z,9.63
2018-05-13T22:09:52.027Z,9.60
2018-05-13T22:12:17.949Z,9.95
2018-05-13T22:14:44.912Z,11.25
2018-05-13T22:17:10.871Z,10.70
2018-05-13T22:19:36.789Z,10.77
2018-05-13T22:22:02.746Z,11.70
2018-05-13T22:24:28.702Z,11.50
2018-05-13T22:26:54.604Z,11.25
2018-05-13T22:29:20.561Z,11.80
2018-05-13T22:31:46.538Z,12.30
2018-05-13T22:34:12.489Z,12.20
2018-05-13T22:36:38.438Z,13.13
2018-05-13T22:39:04.361Z,13.00
2018-05-13T22:41:30.281Z,12.70
2018-05-13T22:43:57.254Z,11.90
2018-05-13T22:46:23.206Z,12.82
2018-05-13T22:48:49.123Z,13.37
2018-05-13T22:51:15.067Z,13.75
2018-05-13T22:53:40.983Z,13.45
2018-05-13T22:56:06.930Z,13.23
2018-05-13T22:58:32.842Z,13.35
2018-05-13T23:00:58.808Z,15.15
2018-05-13T23:03:24.704Z,14.68
2018-05-13T23:05:50.641Z,15.90
2018-05-13T23:08:16.579Z,15.77
2018-05-13T23:10:42.495Z,16.35
2018-05-13T23:13:08.457Z,16.37
2018-05-13T23:15:34.381Z,15.93
2018-05-13T23:20:51.546Z,16.83
2018-05-13T23:23:17.958Z,18.12
2018-05-13T23:25:44.467Z,16.30
2018-05-13T23:28:11.025Z,17.55
2018-05-13T23:30:37.470Z,17.63
2018-05-13T23:33:03.951Z,16.95
2018-05-13T23:35:30.292Z,17.05
2018-05-13T23:37:56.746Z,17.80
2018-05-13T23:40:23.191Z,17.52
2018-05-13T23:42:49.867Z,17.80
2018-05-13T23:45:16.381Z,18.67
2018-05-13T23:47:42.824Z,19.60
2018-05-13T23:50:09.223Z,20.20
2018-05-13T23:52:35.778Z,19.92
2018-05-13T23:55:02.167Z,19.55
2018-05-13T23:57:28.143Z,21.65
2018-05-13T23:59:54.048Z,19.73
